Time;durP1;ratioP1;P1;durP2;ratioP2;P2;SDS_P1;SDS_P2;PMS_P1;PMS_P2;Temp;Humidity;BMP_temperature;BMP_pressure;BME280_temperature;BME280_humidity;BME280_pressure;Samples;Min_cycle;Max_cycle;Signal;HPM_P1;HPM_P2
2022/02/08 00:00:09;;;;;;;8.07;1.52;;;;;;;;;;5013114;28;20491;-73
2022/02/08 00:02:40;;;;;;;14.52;1.48;;;;;;;;;;5012336;28;20470;-72
2022/02/08 00:05:09;;;;;;;6.22;1.10;;;;;;;;;;5013524;28;20088;-74
2022/02/08 00:07:36;;;;;;;6.38;1.13;;;;;;;;;;5013502;28;20026;-73
2022/02/08 00:10:02;;;;;;;10.13;1.20;;;;;;;;;;5012314;28;20021;-73
2022/02/08 00:12:28;;;;;;;7.20;1.27;;;;;;;;;;5012256;28;20041;-72
2022/02/08 00:14:55;;;;;;;7.32;1.40;;;;;;;;;;5013391;28;20034;-72
2022/02/08 00:17:21;;;;;;;15.93;1.50;;;;;;;;;;5012255;28;20026;-73
2022/02/08 00:19:47;;;;;;;4.03;1.20;;;;;;;;;;5013449;28;20037;-73
2022/02/08 00:22:13;;;;;;;5.18;1.30;;;;;;;;;;5013414;28;20037;-73
2022/02/08 00:24:40;;;;;;;7.18;1.42;;;;;;;;;;5012158;28;20076;-73
2022/02/08 00:27:07;;;;;;;7.03;1.15;;;;;;;;;;5013424;28;20021;-72
2022/02/08 00:29:34;;;;;;;9.35;1.58;;;;;;;;;;5012092;28;20108;-73
2022/02/08 00:32:00;;;;;;;6.50;1.67;;;;;;;;;;5013304;28;20090;-73
2022/02/08 00:34:27;;;;;;;10.23;1.20;;;;;;;;;;5012023;28;20460;-73
2022/02/08 00:36:53;;;;;;;9.88;1.63;;;;;;;;;;5011999;28;20026;-73
2022/02/08 00:39:20;;;;;;;9.35;1.38;;;;;;;;;;5013317;28;20029;-73
2022/02/08 00:41:47;;;;;;;3.85;0.90;;;;;;;;;;5012022;28;20018;-73
2022/02/08 00:44:18;;;;;;;2.90;0.85;;;;;;;;;;5013121;28;20026;-73
2022/02/08 00:49:12;;;;;;;5.55;1.15;;;;;;;;;;5013185;28;20029;-72
2022/02/08 00:51:42;;;;;;;2.33;0.45;;;;;;;;;;5013710;28;20125;-73
2022/02/08 00:54:09;;;;;;;5.75;1.23;;;;;;;;;;5015487;28;20112;-73
2022/02/08 00:56:35;;;;;;;16.33;1.55;;;;;;;;;;5016799;28;20029;-73
2022/02/08 00:59:01;;;;;;;6.13;1.17;;;;;;;;;;5016995;28;20364;-73
2022/02/08 01:01:30;;;;;;;5.80;1.20;;;;;;;;;;5015448;28;20113;-73
2022/02/08 01:03:56;;;;;;;10.40;1.55;;;;;;;;;;5015181;28;20406;-70
2022/02/08 01:06:22;;;;;;;7.53;1.27;;;;;;;;;;5015367;28;20022;-73
2022/02/08 01:09:03;;;;;;;6.95;1.13;;;;;;;;;;5015308;28;20033;-73
2022/02/08 01:11:29;;;;;;;5.15;0.60;;;;;;;;;;5015244;28;20032;-73
2022/02/08 01:13:55;;;;;;;5.43;1.05;;;;;;;;;;5016924;28;20033;-73
2022/02/08 01:16:21;;;;;;;3.13;0.73;;;;;;;;;;5015197;28;20116;-73
2022/02/08 01:18:52;;;;;;;12.23;1.77;;;;;;;;;;5015077;28;20465;-74
2022/02/08 01:21:18;;;;;;;6.50;0.80;;;;;;;;;;5015115;28;20017;-73
2022/02/08 01:23:45;;;;;;;3.22;1.08;;;;;;;;;;5014962;28;20479;-73
2022/02/08 01:26:15;;;;;;;8.02;1.67;;;;;;;;;;5016478;28;20025;-73
2022/02/08 01:31:11;;;;;;;5.10;0.50;;;;;;;;;;5016138;28;20040;-73
2022/02/08 01:39:11;;;;;;;6.87;1.47;;;;;;;;;;5016912;28;20044;-72
2022/02/08 01:49:32;;;;;;;6.80;0.95;;;;;;;;;;5015859;28;20426;-72
2022/02/08 01:51:59;;;;;;;2.10;0.55;;;;;;;;;;5014533;28;20025;-73
2022/02/08 01:54:26;;;;;;;7.32;1.00;;;;;;;;;;5014316;28;20467;-73
2022/02/08 01:56:53;;;;;;;3.75;0.50;;;;;;;;;;5015681;28;20045;-73
2022/02/08 01:59:20;;;;;;;4.25;0.90;;;;;;;;;;5014342;28;20470;-73
2022/02/08 02:01:46;;;;;;;2.10;0.30;;;;;;;;;;5015586;28;20028;-74
2022/02/08 02:04:12;;;;;;;4.18;0.60;;;;;;;;;;5014569;28;20081;-73
2022/02/08 02:06:38;;;;;;;7.80;0.75;;;;;;;;;;5014483;28;20021;-73
2022/02/08 02:09:05;;;;;;;6.15;0.57;;;;;;;;;;5015434;28;20116;-73
2022/02/08 02:11:32;;;;;;;5.90;1.00;;;;;;;;;;5014053;28;20080;-73
2022/02/08 02:13:58;;;;;;;6.43;1.05;;;;;;;;;;5014039;28;20033;-73
2022/02/08 02:18:54;;;;;;;5.85;1.10;;;;;;;;;;5015261;28;20044;-73
2022/02/08 02:21:20;;;;;;;6.65;0.80;;;;;;;;;;5015266;28;20387;-74
2022/02/08 02:23:48;;;;;;;9.50;1.00;;;;;;;;;;5013857;28;20084;-73
2022/02/08 02:26:14;;;;;;;2.70;0.60;;;;;;;;;;5013867;28;20034;-73
2022/02/08 02:28:43;;;;;;;10.23;0.80;;;;;;;;;;5013842;28;20467;-73
2022/02/08 02:31:10;;;;;;;6.85;1.40;;;;;;;;;;5015076;28;20100;-73
2022/02/08 02:33:36;;;;;;;3.90;1.00;;;;;;;;;;5013646;28;20058;-73
2022/02/08 02:36:02;;;;;;;5.72;0.82;;;;;;;;;;5013669;28;20073;-73
2022/02/08 02:38:28;;;;;;;6.57;0.98;;;;;;;;;;5015135;28;20018;-73
2022/02/08 02:40:55;;;;;;;11.40;1.42;;;;;;;;;;5013498;28;20060;-72
2022/02/08 02:43:21;;;;;;;4.47;1.05;;;;;;;;;;5013529;28;20053;-73
2022/02/08 02:45:48;;;;;;;6.82;1.25;;;;;;;;;;5013530;28;20117;-73
2022/02/08 02:48:14;;;;;;;9.13;1.10;;;;;;;;;;5013423;28;20029;-73
2022/02/08 02:50:41;;;;;;;4.97;1.00;;;;;;;;;;5014715;28;20053;-73
2022/02/08 02:53:07;;;;;;;6.97;1.38;;;;;;;;;;5013365;28;20057;-72
2022/02/08 02:55:35;;;;;;;6.57;1.08;;;;;;;;;;5013285;28;20045;-72
2022/02/08 02:58:02;;;;;;;7.20;0.88;;;;;;;;;;5014583;28;20459;-73
2022/02/08 03:00:39;;;;;;;9.68;1.27;;;;;;;;;;5013257;28;20075;-73
2022/02/08 03:03:23;;;;;;;4.35;0.90;;;;;;;;;;5014684;28;20030;-73
2022/02/08 03:19:14;;;;;;;4.30;1.00;;;;;;;;;;5014253;28;20064;-74
2022/02/08 03:21:41;;;;;;;12.43;1.10;;;;;;;;;;5012880;28;20451;-73
2022/02/08 03:24:07;;;;;;;8.43;1.20;;;;;;;;;;5014025;28;20032;-73
2022/02/08 03:26:33;;;;;;;6.72;1.02;;;;;;;;;;5014621;28;20026;-73
2022/02/08 03:28:59;;;;;;;8.60;1.38;;;;;;;;;;5012789;28;20025;-72
2022/02/08 03:31:25;;;;;;;7.22;1.50;;;;;;;;;;5014009;28;20084;-72
2022/02/08 03:33:52;;;;;;;4.65;1.10;;;;;;;;;;5012601;28;20467;-73
2022/02/08 03:36:18;;;;;;;3.95;1.15;;;;;;;;;;5014472;28;20030;-73
2022/02/08 03:38:47;;;;;;;3.08;0.88;;;;;;;;;;5012662;28;20026;-71
2022/02/08 03:41:13;;;;;;;5.10;1.65;;;;;;;;;;5012727;28;20029;-69
2022/02/08 03:43:44;;;;;;;9.02;1.08;;;;;;;;;;5013782;28;20030;-73
2022/02/08 03:46:15;;;;;;;6.05;1.20;;;;;;;;;;5012561;28;20149;-72
2022/02/08 03:48:43;;;;;;;4.35;0.98;;;;;;;;;;5012536;28;20076;-74
2022/02/08 03:51:11;;;;;;;3.50;0.85;;;;;;;;;;5012451;28;20026;-73
2022/02/08 03:53:38;;;;;;;5.05;0.93;;;;;;;;;;5012392;28;20022;-73
2022/02/08 03:56:07;;;;;;;5.68;1.05;;;;;;;;;;5012495;28;20038;-72
2022/02/08 03:58:33;;;;;;;8.65;1.20;;;;;;;;;;5012444;28;20037;-73
2022/02/08 04:04:02;;;;;;;5.68;1.10;;;;;;;;;;5013692;28;20557;-73
2022/02/08 04:06:29;;;;;;;4.70;1.20;;;;;;;;;;5012364;28;20018;-73
2022/02/08 04:08:57;;;;;;;3.33;1.00;;;;;;;;;;5012335;28;20030;-73
2022/02/08 04:11:24;;;;;;;3.97;0.98;;;;;;;;;;5013536;28;20018;-73
2022/02/08 04:14:01;;;;;;;4.47;1.13;;;;;;;;;;5012206;28;20042;-73
2022/02/08 04:16:33;;;;;;;9.48;1.27;;;;;;;;;;5012270;28;20064;-73
2022/02/08 04:19:17;;;;;;;7.82;1.20;;;;;;;;;;5012301;28;20084;-73
2022/02/08 04:33:02;;;;;;;12.25;2.25;;;;;;;;;;5017850;28;20537;-73
2022/02/08 04:38:56;;;;;;;3.63;1.30;;;;;;;;;;5017207;28;20026;-73
2022/02/08 04:41:10;;;;;;;5.88;1.65;;;;;;;;;;5008786;28;20069;-72
2022/02/08 04:43:49;;;;;;;3.53;1.00;;;;;;;;;;5015855;28;20018;-73
2022/02/08 04:48:55;;;;;;;4.50;1.77;;;;;;;;;;5016997;28;20045;-72
2022/02/08 04:53:56;;;;;;;6.93;1.50;;;;;;;;;;5016795;28;20364;-73
2022/02/08 04:56:37;;;;;;;6.75;1.52;;;;;;;;;;5015602;28;20030;-73
2022/02/08 05:02:00;;;;;;;10.43;1.85;;;;;;;;;;5015120;28;20030;-72
2022/02/08 05:26:54;;;;;;;9.05;2.08;;;;;;;;;;5016862;28;20048;-73
2022/02/08 05:45:31;;;;;;;8.10;2.00;;;;;;;;;;5015981;28;20026;-73
2022/02/08 05:48:00;;;;;;;6.72;2.00;;;;;;;;;;5014567;28;20048;-74
2022/02/08 05:50:57;;;;;;;9.48;2.33;;;;;;;;;;5015819;28;20505;-73
2022/02/08 05:55:58;;;;;;;8.52;1.52;;;;;;;;;;5015809;28;20161;-72
2022/02/08 05:58:26;;;;;;;6.40;1.95;;;;;;;;;;5014349;28;20029;-73
2022/02/08 06:00:52;;;;;;;12.15;1.75;;;;;;;;;;5014359;28;20029;-72
2022/02/08 06:03:19;;;;;;;6.30;2.08;;;;;;;;;;5015297;28;20046;-73
2022/02/08 06:05:45;;;;;;;6.43;2.13;;;;;;;;;;5014320;28;20045;-72
2022/02/08 06:08:11;;;;;;;4.03;1.63;;;;;;;;;;5015516;28;20101;-71
2022/02/08 06:10:46;;;;;;;6.97;1.75;;;;;;;;;;5017182;28;20030;-70
2022/02/08 06:13:14;;;;;;;7.60;1.50;;;;;;;;;;5015360;28;20101;-70
2022/02/08 06:15:42;;;;;;;3.55;1.73;;;;;;;;;;5013714;28;20414;-70
2022/02/08 06:18:08;;;;;;;7.97;1.75;;;;;;;;;;5013850;28;20471;-70
2022/02/08 06:20:34;;;;;;;6.43;1.77;;;;;;;;;;5015088;28;20599;-70
2022/02/08 06:23:01;;;;;;;7.82;1.55;;;;;;;;;;5015213;28;20018;-69
2022/02/08 06:25:27;;;;;;;6.68;1.90;;;;;;;;;;5013326;28;20459;-70
2022/02/08 06:27:53;;;;;;;9.15;1.80;;;;;;;;;;5014993;28;20026;-68
2022/02/08 06:30:22;;;;;;;6.35;1.92;;;;;;;;;;5014968;28;20072;-70
2022/02/08 06:32:50;;;;;;;5.15;1.77;;;;;;;;;;5013669;28;20033;-69
2022/02/08 06:35:21;;;;;;;9.90;1.98;;;;;;;;;;5014920;28;20030;-69
2022/02/08 06:37:47;;;;;;;4.47;1.80;;;;;;;;;;5014729;28;20390;-70
2022/02/08 06:40:14;;;;;;;7.63;2.00;;;;;;;;;;5015237;28;20025;-69
2022/02/08 06:42:41;;;;;;;8.57;1.65;;;;;;;;;;5013527;28;20029;-69
2022/02/08 06:45:09;;;;;;;5.25;2.00;;;;;;;;;;5014822;28;20383;-69
2022/02/08 06:47:35;;;;;;;7.88;1.92;;;;;;;;;;5014575;28;20030;-69
2022/02/08 06:50:03;;;;;;;5.20;1.95;;;;;;;;;;5014036;28;20034;-68
2022/02/08 06:52:29;;;;;;;6.68;1.95;;;;;;;;;;5014784;28;20029;-69
2022/02/08 06:54:55;;;;;;;10.07;2.03;;;;;;;;;;5014353;28;20034;-68
2022/02/08 06:57:21;;;;;;;7.20;1.95;;;;;;;;;;5014353;28;20014;-68
2022/02/08 06:59:53;;;;;;;8.35;2.33;;;;;;;;;;5014476;28;20391;-68
2022/02/08 07:02:19;;;;;;;8.18;2.05;;;;;;;;;;5013189;28;20026;-69
2022/02/08 07:04:45;;;;;;;7.88;1.80;;;;;;;;;;5013035;28;20124;-69
2022/02/08 07:07:15;;;;;;;7.60;1.73;;;;;;;;;;5014366;28;20021;-69
2022/02/08 07:09:43;;;;;;;7.40;1.85;;;;;;;;;;5014308;28;20042;-69
2022/02/08 07:12:09;;;;;;;9.13;2.00;;;;;;;;;;5013041;28;20463;-70
2022/02/08 07:14:35;;;;;;;7.53;1.90;;;;;;;;;;5014383;28;20506;-70
2022/02/08 07:17:01;;;;;;;9.23;1.73;;;;;;;;;;5012950;28;20435;-69
2022/02/08 07:19:27;;;;;;;11.00;2.50;;;;;;;;;;5014154;28;20021;-69
2022/02/08 07:21:53;;;;;;;4.60;1.90;;;;;;;;;;5012846;28;20038;-70
2022/02/08 07:24:20;;;;;;;8.73;2.40;;;;;;;;;;5014392;28;20026;-70
2022/02/08 07:26:52;;;;;;;7.65;1.92;;;;;;;;;;5013946;28;20033;-70
2022/02/08 07:29:19;;;;;;;7.60;2.40;;;;;;;;;;5013931;28;20022;-70
2022/02/08 07:31:56;;;;;;;10.57;2.42;;;;;;;;;;5013621;28;20022;-69
2022/02/08 07:34:45;;;;;;;8.50;1.70;;;;;;;;;;5014330;28;20066;-72
2022/02/08 07:37:18;;;;;;;4.72;1.52;;;;;;;;;;5013605;28;20479;-69
2022/02/08 07:39:48;;;;;;;3.85;1.80;;;;;;;;;;5013849;28;20022;-69
2022/02/08 07:42:14;;;;;;;6.68;1.95;;;;;;;;;;5014276;28;20025;-70
2022/02/08 07:44:40;;;;;;;9.63;2.35;;;;;;;;;;5013782;28;20034;-69
2022/02/08 07:47:07;;;;;;;10.15;2.22;;;;;;;;;;5012472;28;20045;-69
2022/02/08 07:49:37;;;;;;;5.93;2.20;;;;;;;;;;5012413;28;20061;-69
2022/02/08 07:52:03;;;;;;;4.55;1.60;;;;;;;;;;5013674;28;20018;-70
2022/02/08 07:54:29;;;;;;;6.53;1.70;;;;;;;;;;5013813;28;20065;-71
2022/02/08 07:56:55;;;;;;;4.32;1.60;;;;;;;;;;5012419;28;20022;-70
2022/02/08 07:59:21;;;;;;;6.75;1.85;;;;;;;;;;5013620;28;20091;-70
2022/02/08 08:01:47;;;;;;;8.40;1.95;;;;;;;;;;5011557;28;20032;-71
2022/02/08 08:04:13;;;;;;;5.43;1.60;;;;;;;;;;5012037;28;20410;-70
2022/02/08 08:06:40;;;;;;;4.90;1.40;;;;;;;;;;5009023;28;20026;-70
2022/02/08 08:09:06;;;;;;;3.10;1.23;;;;;;;;;;4994078;28;20022;-70
2022/02/08 08:11:36;;;;;;;3.15;1.27;;;;;;;;;;4993812;28;20038;-71
2022/02/08 08:14:04;;;;;;;6.35;1.70;;;;;;;;;;4993866;28;20456;-72
2022/02/08 08:19:36;;;;;;;4.60;1.95;;;;;;;;;;4993731;28;20026;-71
2022/02/08 08:21:50;;;;;;;5.53;0.73;;;;;;;;;;4992414;28;20066;-70
2022/02/08 08:24:16;;;;;;;3.08;1.02;;;;;;;;;;4994187;28;20037;-71
2022/02/08 08:26:42;;;;;;;3.80;0.75;;;;;;;;;;5008805;28;20081;-73
2022/02/08 08:29:08;;;;;;;2.22;0.98;;;;;;;;;;5008827;28;20027;-73
2022/02/08 08:31:35;;;;;;;2.95;1.10;;;;;;;;;;5008704;28;20023;-75
2022/02/08 08:34:01;;;;;;;4.13;1.00;;;;;;;;;;5008657;28;20154;-71
2022/02/08 08:36:29;;;;;;;8.55;1.02;;;;;;;;;;5008531;28;20026;-71
2022/02/08 08:38:56;;;;;;;3.83;0.82;;;;;;;;;;5008743;28;20049;-70
2022/02/08 08:49:27;;;;;;;8.63;0.93;;;;;;;;;;4993590;28;20042;-76
2022/02/08 08:51:55;;;;;;;9.98;1.38;;;;;;;;;;4993535;28;20511;-72
2022/02/08 08:54:22;;;;;;;10.48;1.60;;;;;;;;;;4993440;28;20716;-75
2022/02/08 08:56:52;;;;;;;5.53;1.50;;;;;;;;;;5008545;28;20029;-71
2022/02/08 08:59:19;;;;;;;6.68;1.40;;;;;;;;;;5008398;28;20037;-72
2022/02/08 09:01:48;;;;;;;2.63;0.93;;;;;;;;;;4993324;28;20058;-74
2022/02/08 09:04:18;;;;;;;5.28;1.27;;;;;;;;;;5008234;28;20050;-70
2022/02/08 09:06:45;;;;;;;3.25;1.20;;;;;;;;;;5011752;28;20125;-71
2022/02/08 09:09:14;;;;;;;5.95;1.00;;;;;;;;;;5011761;28;20029;-76
2022/02/08 09:14:37;;;;;;;3.88;1.27;;;;;;;;;;5015287;28;20435;-75
2022/02/08 09:20:19;;;;;;;3.38;1.42;;;;;;;;;;5016461;28;20057;-75
2022/02/08 09:25:50;;;;;;;7.15;1.65;;;;;;;;;;5016615;28;20148;-75
2022/02/08 09:31:18;;;;;;;4.18;1.27;;;;;;;;;;5004205;28;20038;-74
2022/02/08 09:33:44;;;;;;;5.28;1.08;;;;;;;;;;5014582;28;20425;-74
2022/02/08 09:36:10;;;;;;;4.85;0.65;;;;;;;;;;5014825;28;20036;-75
2022/02/08 09:38:36;;;;;;;5.95;1.20;;;;;;;;;;5014792;28;20121;-76
2022/02/08 09:41:03;;;;;;;3.60;0.55;;;;;;;;;;5015910;28;20099;-76
2022/02/08 09:43:30;;;;;;;3.72;0.65;;;;;;;;;;5015817;28;20101;-75
2022/02/08 09:45:59;;;;;;;3.88;1.17;;;;;;;;;;5014592;28;20030;-75
2022/02/08 09:48:48;;;;;;;4.63;1.10;;;;;;;;;;5016202;28;20130;-75
2022/02/08 09:51:16;;;;;;;2.55;0.88;;;;;;;;;;5014323;28;20038;-76
2022/02/08 09:53:43;;;;;;;1.25;0.70;;;;;;;;;;5014307;28;20026;-74
2022/02/08 09:56:10;;;;;;;1.58;0.63;;;;;;;;;;5014378;28;20037;-77
2022/02/08 09:58:36;;;;;;;2.17;0.60;;;;;;;;;;5014355;28;20157;-70
2022/02/08 10:01:22;;;;;;;3.20;1.02;;;;;;;;;;5014345;28;20447;-75
2022/02/08 10:03:50;;;;;;;4.70;0.70;;;;;;;;;;5014050;28;20054;-75
2022/02/08 10:06:16;;;;;;;2.47;0.90;;;;;;;;;;5015379;28;20157;-75
2022/02/08 10:08:42;;;;;;;1.60;0.77;;;;;;;;;;5014051;28;20026;-75
2022/02/08 10:11:13;;;;;;;1.95;0.60;;;;;;;;;;5014111;28;20030;-74
2022/02/08 10:13:59;;;;;;;2.70;0.77;;;;;;;;;;5013868;28;20080;-73
2022/02/08 10:21:48;;;;;;;3.30;0.60;;;;;;;;;;5015028;28;20112;-76
2022/02/08 10:24:18;;;;;;;3.97;0.60;;;;;;;;;;5013749;28;20030;-74
2022/02/08 10:40:11;;;;;;;3.15;0.77;;;;;;;;;;5015498;28;20045;-75
2022/02/08 10:42:39;;;;;;;5.80;1.10;;;;;;;;;;5013497;28;20116;-75
2022/02/08 10:45:17;;;;;;;5.32;1.05;;;;;;;;;;5013483;28;20033;-74
2022/02/08 10:47:45;;;;;;;4.53;0.82;;;;;;;;;;5013423;28;20446;-75
2022/02/08 10:50:12;;;;;;;1.48;0.65;;;;;;;;;;5014984;28;20049;-73
2022/02/08 10:52:42;;;;;;;4.72;1.02;;;;;;;;;;5014575;28;20021;-73
2022/02/08 10:55:34;;;;;;;3.38;0.80;;;;;;;;;;5013221;28;20042;-74
2022/02/08 11:00:50;;;;;;;4.45;1.20;;;;;;;;;;5014453;28;20387;-73
2022/02/08 11:03:16;;;;;;;5.93;1.23;;;;;;;;;;5013202;28;20038;-72
2022/02/08 11:06:02;;;;;;;1.60;0.80;;;;;;;;;;5013027;28;20056;-75
2022/02/08 11:08:41;;;;;;;2.33;0.70;;;;;;;;;;5014333;28;20499;-73
2022/02/08 11:12:05;;;;;;;3.20;0.88;;;;;;;;;;5014334;28;20029;-74
2022/02/08 11:25:12;;;;;;;4.18;1.15;;;;;;;;;;5013990;28;20080;-74
2022/02/08 11:27:45;;;;;;;5.45;0.95;;;;;;;;;;5013960;28;20057;-72
2022/02/08 11:30:16;;;;;;;1.98;0.80;;;;;;;;;;5014457;28;20029;-75
2022/02/08 11:33:08;;;;;;;3.17;1.10;;;;;;;;;;5012694;28;20034;-75
2022/02/08 11:44:26;;;;;;;2.35;0.82;;;;;;;;;;5014076;28;20399;-75
2022/02/08 11:47:35;;;;;;;1.92;0.60;;;;;;;;;;5013838;28;20022;-76
2022/02/08 12:05:19;;;;;;;6.03;1.75;;;;;;;;;;5011869;28;20077;-75
2022/02/08 12:07:51;;;;;;;4.88;1.55;;;;;;;;;;5012169;28;20060;-74
2022/02/08 12:34:58;;;;;;;1.88;0.77;;;;;;;;;;5013204;28;20034;-75
2022/02/08 13:02:01;;;;;;;2.75;1.10;;;;;;;;;;5017006;28;20123;-73
2022/02/08 14:03:34;;;;;;;6.38;1.35;;;;;;;;;;5015744;28;20032;-73
2022/02/08 14:08:41;;;;;;;6.40;1.10;;;;;;;;;;5016232;28;20033;-73
2022/02/08 14:13:43;;;;;;;6.18;1.23;;;;;;;;;;5015662;28;20494;-70
2022/02/08 14:19:07;;;;;;;4.78;1.15;;;;;;;;;;5015328;28;20065;-70
2022/02/08 14:21:51;;;;;;;5.32;1.50;;;;;;;;;;5015178;28;20038;-73
2022/02/08 14:24:32;;;;;;;4.43;1.20;;;;;;;;;;5015508;28;20022;-71
2022/02/08 14:29:53;;;;;;;7.15;1.10;;;;;;;;;;5015330;28;20053;-70
2022/02/08 15:00:07;;;;;;;7.00;1.10;;;;;;;;;;5014561;28;20060;-70
2022/02/08 15:10:04;;;;;;;4.57;1.60;;;;;;;;;;5014387;28;20085;-70
2022/02/08 15:12:34;;;;;;;4.05;1.50;;;;;;;;;;5012607;28;20026;-70
2022/02/08 15:15:10;;;;;;;5.43;1.10;;;;;;;;;;5012552;28;20112;-70
2022/02/08 15:17:36;;;;;;;6.63;1.20;;;;;;;;;;5013692;28;20457;-71
2022/02/08 15:20:04;;;;;;;6.45;1.80;;;;;;;;;;5013002;28;20030;-70
2022/02/08 15:22:30;;;;;;;7.25;1.20;;;;;;;;;;5012867;28;20022;-71
2022/02/08 15:25:00;;;;;;;3.63;1.30;;;;;;;;;;5013129;28;20053;-71
2022/02/08 15:27:27;;;;;;;5.70;1.20;;;;;;;;;;5013898;28;20058;-70
2022/02/08 15:29:55;;;;;;;5.40;1.20;;;;;;;;;;5012807;28;20516;-70
2022/02/08 15:32:22;;;;;;;7.72;1.55;;;;;;;;;;5012695;28;20057;-72
2022/02/08 15:34:48;;;;;;;10.20;1.27;;;;;;;;;;5012580;28;20121;-70
2022/02/08 15:37:15;;;;;;;5.13;1.00;;;;;;;;;;5012377;28;20482;-72
2022/02/08 15:39:43;;;;;;;4.22;1.20;;;;;;;;;;5012505;28;20026;-70
2022/02/08 15:42:09;;;;;;;3.28;0.90;;;;;;;;;;5013881;28;20025;-72
2022/02/08 15:44:36;;;;;;;4.68;1.10;;;;;;;;;;5012544;28;20056;-74
2022/02/08 15:47:03;;;;;;;4.32;1.05;;;;;;;;;;5012434;28;20364;-74
2022/02/08 15:49:31;;;;;;;3.50;0.93;;;;;;;;;;5013635;28;20532;-73
2022/02/08 15:52:11;;;;;;;5.45;1.27;;;;;;;;;;5013715;28;20101;-73
2022/02/08 15:54:42;;;;;;;4.88;1.38;;;;;;;;;;5012409;28;20543;-70
2022/02/08 16:00:35;;;;;;;4.65;2.22;;;;;;;;;;4986792;28;20031;-71
2022/02/08 16:06:00;;;;;;;5.03;1.20;;;;;;;;;;4994234;28;20388;-73
2022/02/08 16:08:33;;;;;;;5.47;1.60;;;;;;;;;;4993800;28;20027;-69
2022/02/08 16:13:50;;;;;;;7.03;1.33;;;;;;;;;;4994144;28;20436;-74
2022/02/08 16:19:03;;;;;;;4.65;1.05;;;;;;;;;;4994351;28;20471;-73
2022/02/08 16:24:26;;;;;;;5.75;1.63;;;;;;;;;;4996068;28;20468;-74
2022/02/08 16:54:20;;;;;;;3.42;1.30;;;;;;;;;;4997221;28;20069;-74
2022/02/08 16:59:17;;;;;;;4.28;1.10;;;;;;;;;;4997330;28;20514;-76
2022/02/08 17:01:43;;;;;;;4.63;1.15;;;;;;;;;;4995868;28;20518;-68
2022/02/08 17:04:10;;;;;;;3.55;0.70;;;;;;;;;;4995321;28;20062;-69
2022/02/08 17:06:36;;;;;;;4.30;0.77;;;;;;;;;;4996543;28;20033;-69
2022/02/08 17:09:09;;;;;;;4.00;1.00;;;;;;;;;;4996992;28;20023;-68
2022/02/08 17:11:41;;;;;;;3.63;1.00;;;;;;;;;;4997525;28;20113;-69
2022/02/08 17:16:51;;;;;;;2.70;1.02;;;;;;;;;;4997159;28;20076;-70
2022/02/08 17:19:50;;;;;;;5.13;1.30;;;;;;;;;;4995583;28;20023;-70
2022/02/08 17:47:30;;;;;;;2.80;0.80;;;;;;;;;;4996846;28;20053;-69
2022/02/08 17:49:44;;;;;;;3.35;1.10;;;;;;;;;;4996002;28;20085;-69
2022/02/08 17:52:10;;;;;;;2.08;0.70;;;;;;;;;;4994986;28;20382;-69
2022/02/08 17:54:37;;;;;;;3.42;0.90;;;;;;;;;;4994825;28;20049;-67
2022/02/08 17:57:03;;;;;;;3.08;0.75;;;;;;;;;;4994828;28;20113;-68
2022/02/08 17:59:30;;;;;;;2.42;0.80;;;;;;;;;;4994832;28;20026;-68
2022/02/08 18:01:56;;;;;;;5.22;1.10;;;;;;;;;;4994763;28;20057;-70
2022/02/08 18:04:22;;;;;;;4.70;1.02;;;;;;;;;;4995728;28;20118;-70
2022/02/08 18:06:48;;;;;;;1.88;0.95;;;;;;;;;;4994654;28;20041;-68
2022/02/08 18:09:18;;;;;;;3.38;1.17;;;;;;;;;;4996419;28;20101;-68
2022/02/08 18:11:44;;;;;;;2.42;1.10;;;;;;;;;;4994550;28;20080;-69
2022/02/08 18:14:16;;;;;;;2.08;0.93;;;;;;;;;;4994472;28;20023;-69
2022/02/08 18:16:44;;;;;;;2.15;0.75;;;;;;;;;;4994563;28;20114;-70
2022/02/08 18:19:17;;;;;;;2.78;0.85;;;;;;;;;;4994439;28;20120;-72
2022/02/08 18:21:55;;;;;;;6.78;0.90;;;;;;;;;;4994484;28;20022;-70
2022/02/08 18:24:48;;;;;;;3.33;0.80;;;;;;;;;;4996095;28;20514;-69
2022/02/08 18:57:36;;;;;;;1.48;0.63;;;;;;;;;;4994992;28;20092;-70
2022/02/08 19:14:19;;;;;;;2.22;0.90;;;;;;;;;;4994926;28;20491;-69
2022/02/08 19:17:01;;;;;;;2.95;0.70;;;;;;;;;;4994983;28;20145;-69
2022/02/08 19:22:00;;;;;;;2.90;0.90;;;;;;;;;;4994596;28;20026;-69
2022/02/08 19:24:26;;;;;;;2.20;0.75;;;;;;;;;;4993167;28;20026;-70
2022/02/08 19:26:59;;;;;;;2.88;1.20;;;;;;;;;;4993198;28;20105;-70
2022/02/08 19:29:26;;;;;;;1.52;0.65;;;;;;;;;;4993205;28;20495;-69
2022/02/08 19:31:52;;;;;;;2.08;0.80;;;;;;;;;;4993121;28;20026;-69
2022/02/08 19:34:18;;;;;;;2.22;0.70;;;;;;;;;;4994308;28;20035;-69
2022/02/08 19:36:45;;;;;;;3.10;0.80;;;;;;;;;;4994310;28;20034;-68
2022/02/08 19:39:12;;;;;;;2.20;0.70;;;;;;;;;;4993049;28;20116;-68
2022/02/08 19:41:38;;;;;;;2.15;0.80;;;;;;;;;;4994267;28;20030;-69
2022/02/08 19:44:07;;;;;;;3.63;0.68;;;;;;;;;;4992988;28;20030;-69
2022/02/08 19:46:33;;;;;;;2.40;0.70;;;;;;;;;;4992924;28;20026;-68
2022/02/08 19:48:59;;;;;;;1.50;0.60;;;;;;;;;;4992870;28;20542;-69
2022/02/08 19:51:26;;;;;;;1.73;0.50;;;;;;;;;;4992867;28;20395;-69
2022/02/08 19:53:55;;;;;;;2.20;0.70;;;;;;;;;;4994063;28;20030;-68
2022/02/08 19:56:32;;;;;;;3.10;0.70;;;;;;;;;;4992731;28;20125;-69
2022/02/08 19:59:00;;;;;;;2.28;0.80;;;;;;;;;;4991942;28;20042;-69
2022/02/08 20:01:31;;;;;;;1.73;0.60;;;;;;;;;;4992744;28;20031;-69
2022/02/08 20:04:05;;;;;;;1.38;0.60;;;;;;;;;;4994121;28;20492;-68
2022/02/08 20:06:33;;;;;;;2.38;0.73;;;;;;;;;;4992806;28;20026;-69
2022/02/08 20:09:00;;;;;;;1.90;0.70;;;;;;;;;;4992669;28;20387;-69
2022/02/08 20:11:26;;;;;;;4.72;1.58;;;;;;;;;;4992622;28;20120;-68
2022/02/08 20:13:56;;;;;;;9.25;2.45;;;;;;;;;;4992600;28;20022;-69
2022/02/08 20:16:23;;;;;;;4.43;1.65;;;;;;;;;;4992489;28;20061;-69
2022/02/08 20:18:53;;;;;;;2.97;0.70;;;;;;;;;;4993870;28;20144;-68
2022/02/08 20:21:20;;;;;;;1.67;0.65;;;;;;;;;;4992494;28;20483;-69
2022/02/08 20:23:46;;;;;;;2.67;0.70;;;;;;;;;;4992523;28;20080;-67
2022/02/08 20:26:12;;;;;;;2.03;0.80;;;;;;;;;;4992515;28;20022;-68
2022/02/08 20:28:54;;;;;;;1.75;0.90;;;;;;;;;;4993760;28;20085;-68
2022/02/08 20:31:20;;;;;;;3.15;1.08;;;;;;;;;;4992493;28;20506;-69
2022/02/08 20:33:47;;;;;;;2.50;0.77;;;;;;;;;;4994251;28;20042;-68
2022/02/08 20:36:14;;;;;;;2.22;0.60;;;;;;;;;;4992343;28;20092;-68
2022/02/08 20:38:40;;;;;;;2.47;1.05;;;;;;;;;;4992379;28;20487;-68
2022/02/08 20:41:06;;;;;;;3.33;1.00;;;;;;;;;;4992383;28;20442;-68
2022/02/08 20:43:35;;;;;;;2.75;1.08;;;;;;;;;;4993742;28;20029;-68
2022/02/08 20:46:04;;;;;;;1.73;0.50;;;;;;;;;;4993587;28;20034;-67
2022/02/08 20:48:31;;;;;;;1.55;0.70;;;;;;;;;;4992370;28;20029;-69
2022/02/08 20:51:02;;;;;;;1.83;0.60;;;;;;;;;;4992270;28;20030;-68
2022/02/08 20:53:40;;;;;;;1.50;0.70;;;;;;;;;;4994129;28;20109;-69
2022/02/08 20:56:10;;;;;;;2.40;0.63;;;;;;;;;;4992237;28;20038;-68
2022/02/08 20:59:05;;;;;;;2.75;0.88;;;;;;;;;;4993487;28;20435;-68
2022/02/08 21:01:41;;;;;;;3.22;1.00;;;;;;;;;;4992377;28;20058;-68
2022/02/08 21:06:50;;;;;;;4.17;1.10;;;;;;;;;;4993794;28;20032;-67
2022/02/08 21:09:17;;;;;;;2.30;0.80;;;;;;;;;;4994190;28;20026;-67
2022/02/08 21:12:17;;;;;;;2.10;0.82;;;;;;;;;;4995678;28;20029;-67
2022/02/08 21:14:30;;;;;;;2.42;0.93;;;;;;;;;;4996387;28;20050;-68
2022/02/08 21:16:56;;;;;;;1.73;0.68;;;;;;;;;;4995689;28;20027;-68
2022/02/08 21:19:24;;;;;;;4.60;0.80;;;;;;;;;;4995487;28;20479;-69
2022/02/08 21:21:51;;;;;;;2.58;0.98;;;;;;;;;;4995478;28;20022;-72
2022/02/08 21:24:18;;;;;;;2.70;0.60;;;;;;;;;;4997238;28;20578;-69
2022/02/08 21:26:48;;;;;;;1.50;0.80;;;;;;;;;;4995316;28;20396;-68
2022/02/08 21:29:35;;;;;;;1.60;0.60;;;;;;;;;;4995405;28;20487;-70
2022/02/08 21:51:19;;;;;;;2.33;0.85;;;;;;;;;;4996522;28;20472;-71
2022/02/08 21:53:33;;;;;;;4.80;0.77;;;;;;;;;;4995816;28;20104;-72
2022/02/08 21:56:01;;;;;;;5.63;0.93;;;;;;;;;;4996298;28;20042;-70
2022/02/08 21:58:28;;;;;;;3.13;0.98;;;;;;;;;;4994810;28;20073;-69
2022/02/08 22:00:56;;;;;;;2.65;1.00;;;;;;;;;;4994852;28;20034;-69
2022/02/08 22:03:22;;;;;;;1.90;0.88;;;;;;;;;;4995820;28;20065;-70
2022/02/08 22:05:49;;;;;;;2.33;1.00;;;;;;;;;;4994710;28;20027;-70
2022/02/08 22:08:23;;;;;;;2.25;0.95;;;;;;;;;;4996440;28;20399;-70
2022/02/08 22:24:16;;;;;;;1.95;0.77;;;;;;;;;;4954821;29;20031;-70
2022/02/08 22:32:03;;;;;;;4.00;0.80;;;;;;;;;;4995549;28;20198;-70
2022/02/08 22:37:08;;;;;;;3.08;0.52;;;;;;;;;;4995487;28;20035;-69
2022/02/08 22:40:21;;;;;;;1.38;0.57;;;;;;;;;;4994145;28;20034;-69
2022/02/08 22:42:31;;;;;;;1.90;0.57;;;;;;;;;;4993174;28;20030;-68
2022/02/08 22:44:59;;;;;;;2.20;0.75;;;;;;;;;;4994064;28;20050;-70
2022/02/08 22:47:26;;;;;;;3.88;1.00;;;;;;;;;;4993970;28;20042;-69
2022/02/08 22:49:52;;;;;;;5.15;1.30;;;;;;;;;;4993931;28;20026;-69
2022/02/08 22:52:18;;;;;;;1.90;0.55;;;;;;;;;;4995142;28;20030;-69
2022/02/08 22:54:44;;;;;;;1.92;0.88;;;;;;;;;;4995039;28;20034;-70
2022/02/08 22:57:12;;;;;;;1.45;0.55;;;;;;;;;;4993782;28;20379;-70
2022/02/08 22:59:38;;;;;;;3.20;0.90;;;;;;;;;;4993747;28;20022;-69
2022/02/08 23:02:05;;;;;;;2.28;0.90;;;;;;;;;;4993686;28;20541;-68
2022/02/08 23:04:32;;;;;;;3.22;0.57;;;;;;;;;;4993347;28;20042;-73
2022/02/08 23:07:00;;;;;;;2.70;0.85;;;;;;;;;;4994877;28;20023;-70
2022/02/08 23:09:35;;;;;;;2.35;0.80;;;;;;;;;;4993844;28;20037;-69
2022/02/08 23:14:53;;;;;;;2.28;1.02;;;;;;;;;;4994703;28;20448;-69